Weather History for KDKB - October, 2012

Change the Weather History Date:

Sunday, October 21, 2012

  Actual Average (KARR) Record (KARR)
Temperature  
Mean Temperature 52 °F 49 °F  
Max Temperature 68 °F 60 °F 80 °F (2007)
Min Temperature 36 °F 38 °F 27 °F (2013)
Degree Days  
Heating Degree Days 13 16  
Month to date heating degree days 275  
Since 1 July heating degree days 428  
Cooling Degree Days 0 0  
Month to date cooling degree days 9  
Year to date cooling degree days 656  
Growing Degree Days 2 (Base 50)    
Moisture  
Dew Point 45 °F    
Average Humidity 76    
Maximum Humidity 92    
Minimum Humidity 51    
Precipitation  
Precipitation 0.00 in 0.10 in 0.42 in (2006)
Month to date precipitation 2.14  
Year to date precipitation 30.78  
Sea Level Pressure  
Sea Level Pressure 29.97 in    
Wind  
Wind Speed 8 mph (SSE)    
Max Wind Speed 16 mph    
Max Gust Speed 21 mph    
Visibility 8 miles    
Events      
T = Trace of Precipitation, MM = Missing Value Source: NWS Daily Summary

Daily Weather History Graph

Daily Weather History Graph

Search for Another Location

Airport or City:

Trip Planner

Search our weather history database for the weather conditions in past years. The results will help you decide how hot, cold, wet, or windy it might be!

Date:

Astronomy

Oct. 21, 2012 Rise Set
Actual Time 7:14 AM CDT 6:03 PM CDT
Civil Twilight 6:46 AM CDT 6:31 PM CDT
Nautical Twilight 6:13 AM CDT 7:04 PM CDT
Astronomical Twilight 5:41 AM CDT 7:36 PM CDT
Moon 1:37 PM CDT (10/21) 11:56 PM CDT (10/21)
Length of Visible Light 11h 45m
Length of Day
10h 48m
Waxing Crescent, 45% of the Moon is Illuminated
Oct 21
Waxing Crescent
Oct 21
First Quarter
Oct 29
Full
Nov 6
Last Quarter
Nov 13
New

Hourly Weather History & Observations

Time (CDT) Temp. Windchill Dew Point Humidity Pressure Visibility Wind Dir Wind Speed Gust Speed Precip Events Conditions
12:15 AM 41.2 °F 37.3 °F 37.9 °F 88% 29.95 in 10.0 mi SSW 5.8 mph - N/A   Clear
12:35 AM 40.1 °F 36.9 °F 37.0 °F 89% 29.96 in 10.0 mi SW 4.6 mph - N/A   Clear
12:55 AM 40.1 °F 38.0 °F 37.2 °F 89% 29.96 in 10.0 mi SSW 3.5 mph - N/A   Clear
1:15 AM 40.8 °F 37.8 °F 37.9 °F 89% 29.96 in 10.0 mi SSW 4.6 mph - N/A   Clear
1:55 AM 40.1 °F 38.0 °F 37.0 °F 89% 29.96 in 7.0 mi SSW 3.5 mph - N/A   Clear
2:15 AM 38.8 °F 35.4 °F 36.0 °F 89% 29.97 in 7.0 mi South 4.6 mph - N/A   Clear
2:35 AM 38.7 °F 34.3 °F 36.0 °F 90% 29.96 in 7.0 mi South 5.8 mph - N/A   Clear
2:55 AM 37.6 °F 33.1 °F 34.9 °F 90% 29.97 in 5.0 mi South 5.8 mph - N/A   Clear
3:15 AM 38.1 °F 34.6 °F 35.6 °F 91% 29.97 in 5.0 mi South 4.6 mph - N/A   Clear
3:35 AM 37.6 °F 33.1 °F 35.1 °F 91% 29.97 in 5.0 mi South 5.8 mph - N/A   Clear
3:55 AM 37.8 °F 33.3 °F 35.4 °F 91% 29.97 in 5.0 mi SSE 5.8 mph - N/A   Clear
4:15 AM 39.2 °F 35.0 °F 36.9 °F 91% 29.97 in 5.0 mi SE 5.8 mph - N/A   Clear
4:35 AM 38.3 °F 33.2 °F 35.8 °F 91% 29.97 in 4.0 mi SSE 6.9 mph - N/A   Clear
4:55 AM 38.8 °F 35.4 °F 36.5 °F 91% 29.98 in 3.0 mi SE 4.6 mph - N/A   Clear
5:15 AM 38.8 °F 35.4 °F 36.5 °F 91% 29.98 in 4.0 mi South 4.6 mph - N/A   Clear
5:35 AM 36.9 °F 31.4 °F 34.7 °F 92% 29.98 in 4.0 mi SSE 6.9 mph - N/A   Clear
5:55 AM 39.0 °F 34.8 °F 36.7 °F 91% 29.98 in 5.0 mi SE 5.8 mph - N/A   Clear
6:15 AM 38.3 °F 34.8 °F 36.1 °F 92% 29.99 in 5.0 mi SSE 4.6 mph - N/A   Clear
6:35 AM 38.7 °F 34.3 °F 36.5 °F 92% 29.98 in 5.0 mi SE 5.8 mph - N/A   Clear
6:55 AM 39.2 °F 35.0 °F 36.9 °F 91% 29.99 in 5.0 mi SE 5.8 mph - N/A   Clear
7:35 AM 39.0 °F 35.7 °F 36.7 °F 91% 29.99 in 3.0 mi ESE 4.6 mph - N/A   Clear
7:55 AM 41.2 °F 37.3 °F 39.0 °F 92% 30.00 in 4.0 mi ESE 5.8 mph - N/A   Clear
8:15 AM 43.5 °F 38.9 °F 41.2 °F 91% 30.00 in 4.0 mi SE 8.1 mph - N/A   Clear
8:35 AM 45.3 °F 40.6 °F 42.8 °F 91% 30.01 in 5.0 mi SE 9.2 mph - N/A   Clear
8:55 AM 47.1 °F - 44.2 °F 90% 30.01 in 7.0 mi SE 9.2 mph - N/A   Clear
9:15 AM 48.7 °F - 45.3 °F 88% 30.02 in 7.0 mi SE 11.5 mph - N/A   Clear
9:35 AM 50.2 °F - 46.4 °F 87% 30.02 in 10.0 mi SE 11.5 mph - N/A   Clear
9:55 AM 52.3 °F - 47.7 °F 84% 30.02 in 10.0 mi SE 9.2 mph - N/A   Clear
10:15 AM 54.0 °F - 48.0 °F 80% 30.02 in 10.0 mi SE 12.7 mph - N/A   Clear
10:35 AM 55.4 °F - 48.9 °F 79% 30.02 in 10.0 mi SE 15.0 mph - N/A   Clear
10:55 AM 57.0 °F - 49.3 °F 75% 30.01 in 10.0 mi SE 13.8 mph - N/A   Clear
11:15 AM 58.5 °F - 49.3 °F 72% 30.00 in 10.0 mi SE 15.0 mph 20.7 mph N/A   Clear
11:35 AM 59.5 °F - 49.5 °F 69% 30.00 in 10.0 mi SE 12.7 mph 17.3 mph N/A   Clear
11:55 AM 60.8 °F - 50.0 °F 68% 30.00 in 10.0 mi SE 13.8 mph 20.7 mph N/A   Clear
12:15 PM 61.9 °F - 50.2 °F 65% 30.00 in 10.0 mi SE 10.4 mph 16.1 mph N/A   Clear
12:35 PM 62.8 °F - 50.2 °F 63% 29.99 in 10.0 mi SE 15.0 mph 20.7 mph N/A   Clear
1:15 PM 64.2 °F - 49.8 °F 59% 29.98 in 10.0 mi SSE 12.7 mph - N/A   Clear
1:35 PM 65.5 °F - 50.2 °F 58% 29.97 in 10.0 mi SE 11.5 mph - N/A   Clear
1:55 PM 66.2 °F - 50.4 °F 57% 29.97 in 10.0 mi SE 12.7 mph 18.4 mph N/A   Clear
2:15 PM 67.3 °F - 50.2 °F 54% 29.95 in 10.0 mi SSE 16.1 mph 20.7 mph N/A   Clear
2:35 PM 67.6 °F - 49.5 °F 52% 29.95 in 10.0 mi SSE 16.1 mph 20.7 mph N/A   Clear
2:55 PM 68.0 °F - 49.6 °F 52% 29.95 in 10.0 mi SE 11.5 mph 18.4 mph N/A   Clear
3:15 PM 68.7 °F - 50.0 °F 51% 29.95 in 10.0 mi SE 11.5 mph - N/A   Clear
3:35 PM 68.9 °F - 49.8 °F 51% 29.95 in 10.0 mi SSE 16.1 mph - N/A   Clear
3:55 PM 68.5 °F - 50.0 °F 52% 29.95 in 10.0 mi SSE 15.0 mph - N/A   Clear
4:15 PM 68.4 °F - 50.5 °F 53% 29.95 in 10.0 mi SSE 13.8 mph - N/A   Clear
4:35 PM 68.0 °F - 50.5 °F 54% 29.95 in 10.0 mi SSE 13.8 mph - N/A   Clear
4:55 PM 67.5 °F - 50.9 °F 55% 29.95 in 10.0 mi SE 11.5 mph - N/A   Clear
5:15 PM 66.7 °F - 51.4 °F 58% 29.94 in 10.0 mi SE 9.2 mph - N/A   Clear
5:35 PM 65.3 °F - 51.8 °F 62% 29.94 in 10.0 mi SE 8.1 mph - N/A   Clear
6:15 PM 62.8 °F - 51.8 °F 67% 29.95 in 10.0 mi SE 9.2 mph - N/A   Clear
6:35 PM 62.1 °F - 51.4 °F 68% 29.94 in 10.0 mi SE 9.2 mph - N/A   Clear
6:55 PM 61.9 °F - 51.8 °F 69% 29.94 in 10.0 mi SE 9.2 mph - N/A   Clear
7:35 PM 61.2 °F - 51.4 °F 70% 29.95 in 10.0 mi SE 9.2 mph - N/A   Clear
7:55 PM 60.6 °F - 51.3 °F 71% 29.96 in 10.0 mi SE 10.4 mph - N/A   Clear
8:15 PM 60.4 °F - 51.3 °F 72% 29.96 in 10.0 mi SE 9.2 mph - N/A   Clear
8:35 PM 60.4 °F - 51.3 °F 72% 29.96 in 10.0 mi SE 10.4 mph - N/A   Clear
8:55 PM 60.4 °F - 51.3 °F 72% 29.97 in 10.0 mi SE 9.2 mph - N/A   Clear
9:15 PM 60.8 °F - 51.8 °F 72% 29.97 in 10.0 mi SE 10.4 mph - N/A   Clear
9:35 PM 59.5 °F - 51.3 °F 74% 29.97 in 10.0 mi SE 9.2 mph - N/A   Clear
9:55 PM 59.2 °F - 51.4 °F 75% 29.97 in 10.0 mi SE 9.2 mph - N/A   Clear
10:15 PM 59.2 °F - 51.3 °F 75% 29.97 in 10.0 mi SE 9.2 mph - N/A   Clear
10:35 PM 58.3 °F - 50.9 °F 76% 29.97 in 10.0 mi SE 9.2 mph - N/A   Clear
10:55 PM 58.5 °F - 51.1 °F 76% 29.97 in 10.0 mi SE 9.2 mph - N/A   Clear
11:15 PM 58.3 °F - 51.1 °F 77% 29.98 in 10.0 mi SE 9.2 mph - N/A   Clear
11:35 PM 58.1 °F - 51.1 °F 77% 29.97 in 10.0 mi SSE 8.1 mph - N/A   Clear
11:55 PM 56.7 °F - 50.9 °F 81% 29.98 in 10.0 mi SSE 8.1 mph - N/A   Clear